This is the latest recevied weather packets stored in our database for station/object DN9EL-10. If no packets are shown the sender has not sent any weather packets the latest 10 day(s).
| Time | Temp. | Humidity | Pressure | Rain* | Wind** | Luminosity | Snow |
|---|---|---|---|---|---|---|---|
| 1777556893 | 20.56° C | 34% | 974.7 hPa | - | - | - | - |
| 1777555992 | 20° C | 34% | 974.8 hPa | - | - | - | - |
| 1777555092 | 20° C | 34% | 975 hPa | - | - | - | - |
| 1777554192 | 19.44° C | 34% | 975.1 hPa | - | - | - | - |
| 1777553292 | 18.33° C | 34% | 975.1 hPa | - | - | - | - |
| 1777552392 | 17.78° C | 35% | 975.2 hPa | - | - | - | - |
| 1777551492 | 17.22° C | 35% | 975.3 hPa | - | - | - | - |
| 1777550592 | 16.11° C | 35% | 975.4 hPa | - | - | - | - |
| 1777549692 | 15.56° C | 37% | 975.3 hPa | - | - | - | - |
| 1777548792 | 14.44° C | 36% | 975.4 hPa | - | - | - | - |
| 1777547891 | 13.89° C | 38% | 975.4 hPa | - | - | - | - |
| 1777546991 | 13.33° C | 38% | 975.5 hPa | - | - | - | - |
| 1777546091 | 12.78° C | 39% | 975.6 hPa | - | - | - | - |
| 1777545191 | 11.67° C | 39% | 975.8 hPa | - | - | - | - |
| 1777544291 | 11.11° C | 40% | 975.9 hPa | - | - | - | - |
| 1777543391 | 10.56° C | 41% | 975.9 hPa | - | - | - | - |
| 1777542491 | 9.44° C | 41% | 976.1 hPa | - | - | - | - |
| 1777541591 | 8.89° C | 42% | 976.1 hPa | - | - | - | - |
| 1777540691 | 7.78° C | 42% | 976.1 hPa | - | - | - | - |
| 1777539791 | 7.22° C | 42% | 976.1 hPa | - | - | - | - |
| 1777538891 | 6.11° C | 43% | 976.2 hPa | - | - | - | - |
| 1777537990 | 5° C | 44% | 976.1 hPa | - | - | - | - |
| 1777537090 | 3.89° C | 46% | 976.3 hPa | - | - | - | - |
| 1777536190 | 4.44° C | 43% | 976.2 hPa | - | - | - | - |
| 1777535290 | 1.67° C | 47% | 976.2 hPa | - | - | - | - |
* Rain since midnight (hover to see other rain measurements)
** Current wind speed in m/s (hover to see current wind gust speed)